Avioradar koristi kolačiće da bi Vam omogućio jednostavnije i ugodnije korištenje stranice. 

AVIORADAR - Croatian aviation website

METAR & TAF

[Source: ADDS]
METAR
LDZA 041100Z 06009KT 330V120 CAVOK 25/11 Q1018 NOSIG =
LDZA 040525Z 0406/0506 VRB02KT 9999 FEW050 TX27/0414Z TN13/0503Z PROB30 TEMPO 0407/0413 04008KT LDSP 041100Z 12007KT 070V170 9999 FEW050 31/15 Q1013 BECMG 23008KT =
LDSP 040526Z 0406/0506 05008KT 9999 FEW050 TX31/0413Z TN23/0503Z BECMG 0409/0411 23009KT PROB30 TEMPO 0411/0415 VRB15G25KT -TSRA FEW050CB BECMG 0413/0415 05008KT LDDU 041100Z 20009KT 160V240 9999 FEW035 28/20 Q1013 NOSIG =
COR LDDU 040928Z 0406/0506 02010KT 9999 FEW035 TX30/0412Z TN24/0503Z BECMG 0407/0409 19008KT BECMG 0412/0414 29008KT PROB30 TEMPO 0416/0419 33015KT -TSRA FEW040CB BECMG 0419/0421 02018KT LDPL 041100Z 07017KT CAVOK 26/12 Q1016 NOSIG =
LDPL 040525Z 0406/0506 06015KT CAVOK TX28/0413Z TN20/0503Z BECMG 0409/0411 06008KT PROB30 0412/0416 29008KT LDZD 041100Z 08009KT 040V140 CAVOK 30/13 Q1015 NOSIG =
LDZD 040526Z 0406/0506 04008KT 9999 FEW050 TX30/0412Z TN21/0503Z LDRI 041100Z 05012KT CAVOK 26/08 Q1017 =
COR LDRI 040509Z 0406/0506 04014KT CAVOK TX28/0412Z TN20/0503Z TEMPO 0406/0418 04018G32KT PROB30 TEMPO 0416/0500 VRB08KT BECMG 0418/0420 05004KT LDOS 041100Z 29007KT 260V340 9999 BKN033 25/17 Q1017 =
LDOS 040525Z 0406/0506 30006KT CAVOK TX26/0414Z TN17/0503Z PROB30 TEMPO 0411/0419 TSRA FEW035CB
TAF
LDZA 040525Z 0406/0506 VRB02KT 9999 FEW050 TX27/0414Z TN13/0503Z PROB30 TEMPO 0407/0413 04008KT =
LDSP 040526Z 0406/0506 05008KT 9999 FEW050 TX31/0413Z TN23/0503Z BECMG 0409/0411 23009KT PROB30 TEMPO 0411/0415 VRB15G25KT -TSRA FEW050CB BECMG 0413/0415 05008KT =
COR LDDU 040928Z 0406/0506 02010KT 9999 FEW035 TX30/0412Z TN24/0503Z BECMG 0407/0409 19008KT BECMG 0412/0414 29008KT PROB30 TEMPO 0416/0419 33015KT -TSRA FEW040CB BECMG 0419/0421 02018KT =
LDPL 040525Z 0406/0506 06015KT CAVOK TX28/0413Z TN20/0503Z BECMG 0409/0411 06008KT PROB30 0412/0416 29008KT =
LDZD 040526Z 0406/0506 04008KT 9999 FEW050 TX30/0412Z TN21/0503Z =
COR LDRI 040509Z 0406/0506 04014KT CAVOK TX28/0412Z TN20/0503Z TEMPO 0406/0418 04018G32KT PROB30 TEMPO 0416/0500 VRB08KT BECMG 0418/0420 05004KT =
LDOS 040525Z 0406/0506 30006KT CAVOK TX26/0414Z TN17/0503Z PROB30 TEMPO 0411/0419 TSRA FEW035CB =
SR / SS: 03:12 / 18:48 UTC (Zagreb 2020-07-04)